sensor_id;sensor_type;location;lat;lon;timestamp;temperature;humidity
40758;DHT22;26462;47.384;19.218;2024-01-15T00:02:37;-1.90;99.90
40758;DHT22;26462;47.384;19.218;2024-01-15T00:05:06;-1.80;99.90
40758;DHT22;26462;47.384;19.218;2024-01-15T00:07:35;-1.90;99.90
40758;DHT22;26462;47.384;19.218;2024-01-15T00:10:04;-1.80;99.90
40758;DHT22;26462;47.384;19.218;2024-01-15T00:12:32;-1.80;99.90
40758;DHT22;26462;47.384;19.218;2024-01-15T00:15:01;-1.80;99.90
40758;DHT22;26462;47.384;19.218;2024-01-15T00:17:29;-1.80;99.90
40758;DHT22;26462;47.384;19.218;2024-01-15T00:19:59;-1.80;99.90
40758;DHT22;26462;47.384;19.218;2024-01-15T00:22:28;-1.80;99.90
40758;DHT22;26462;47.384;19.218;2024-01-15T00:24:57;-1.80;99.90
40758;DHT22;26462;47.384;19.218;2024-01-15T00:27:26;-1.80;99.90
40758;DHT22;26462;47.384;19.218;2024-01-15T00:29:54;-1.80;99.90
40758;DHT22;26462;47.384;19.218;2024-01-15T00:32:23;-1.80;99.90
40758;DHT22;26462;47.384;19.218;2024-01-15T00:34:51;-1.70;99.90
40758;DHT22;26462;47.384;19.218;2024-01-15T00:37:21;-1.80;99.90
40758;DHT22;26462;47.384;19.218;2024-01-15T00:39:50;-1.70;99.90
40758;DHT22;26462;47.384;19.218;2024-01-15T00:42:18;-1.80;99.90
40758;DHT22;26462;47.384;19.218;2024-01-15T00:44:47;-1.80;99.90
40758;DHT22;26462;47.384;19.218;2024-01-15T00:47:15;-1.80;99.90
40758;DHT22;26462;47.384;19.218;2024-01-15T00:49:44;-1.70;99.90
40758;DHT22;26462;47.384;19.218;2024-01-15T00:52:12;-1.70;99.90
40758;DHT22;26462;47.384;19.218;2024-01-15T00:54:42;-1.70;99.90
40758;DHT22;26462;47.384;19.218;2024-01-15T00:57:10;-1.70;99.90
40758;DHT22;26462;47.384;19.218;2024-01-15T00:59:39;-1.70;99.90
40758;DHT22;26462;47.384;19.218;2024-01-15T01:02:08;-1.70;99.90
40758;DHT22;26462;47.384;19.218;2024-01-15T01:04:36;-1.70;99.90
40758;DHT22;26462;47.384;19.218;2024-01-15T01:07:04;-1.70;99.90
40758;DHT22;26462;47.384;19.218;2024-01-15T01:09:33;-1.70;99.90
40758;DHT22;26462;47.384;19.218;2024-01-15T01:12:03;-1.70;99.90
40758;DHT22;26462;47.384;19.218;2024-01-15T01:14:32;-1.70;99.90
40758;DHT22;26462;47.384;19.218;2024-01-15T01:17:00;-1.60;99.90
40758;DHT22;26462;47.384;19.218;2024-01-15T01:19:29;-1.60;99.90
40758;DHT22;26462;47.384;19.218;2024-01-15T01:21:57;-1.60;99.90
40758;DHT22;26462;47.384;19.218;2024-01-15T01:24:26;-1.70;99.90
40758;DHT22;26462;47.384;19.218;2024-01-15T01:26:55;-1.60;99.90
40758;DHT22;26462;47.384;19.218;2024-01-15T01:29:25;-1.60;99.90
40758;DHT22;26462;47.384;19.218;2024-01-15T01:31:54;-1.70;99.90
40758;DHT22;26462;47.384;19.218;2024-01-15T01:34:23;-1.70;99.90
40758;DHT22;26462;47.384;19.218;2024-01-15T01:36:52;-1.70;99.90
40758;DHT22;26462;47.384;19.218;2024-01-15T01:39:20;-1.70;99.90
40758;DHT22;26462;47.384;19.218;2024-01-15T01:41:49;-1.70;99.90
40758;DHT22;26462;47.384;19.218;2024-01-15T01:44:17;-1.70;99.90
40758;DHT22;26462;47.384;19.218;2024-01-15T01:46:47;-1.80;99.90
40758;DHT22;26462;47.384;19.218;2024-01-15T01:49:16;-1.80;99.90
40758;DHT22;26462;47.384;19.218;2024-01-15T01:51:45;-1.80;99.90
40758;DHT22;26462;47.384;19.218;2024-01-15T01:54:14;-1.80;99.90
40758;DHT22;26462;47.384;19.218;2024-01-15T01:56:43;-1.90;99.90
40758;DHT22;26462;47.384;19.218;2024-01-15T01:59:12;-1.90;99.90
40758;DHT22;26462;47.384;19.218;2024-01-15T02:01:41;-2.00;99.90
40758;DHT22;26462;47.384;19.218;2024-01-15T02:04:11;-1.90;99.90
40758;DHT22;26462;47.384;19.218;2024-01-15T02:06:41;-2.00;99.90
40758;DHT22;26462;47.384;19.218;2024-01-15T02:09:10;-2.00;99.90
40758;DHT22;26462;47.384;19.218;2024-01-15T02:11:42;-2.00;99.90
40758;DHT22;26462;47.384;19.218;2024-01-15T02:14:10;-2.00;99.90
40758;DHT22;26462;47.384;19.218;2024-01-15T02:16:39;-2.00;99.90
40758;DHT22;26462;47.384;19.218;2024-01-15T02:19:07;-2.10;99.90
40758;DHT22;26462;47.384;19.218;2024-01-15T02:21:37;-2.10;99.90
40758;DHT22;26462;47.384;19.218;2024-01-15T02:24:07;-2.10;99.90
40758;DHT22;26462;47.384;19.218;2024-01-15T02:26:36;-2.10;99.90
40758;DHT22;26462;47.384;19.218;2024-01-15T02:29:07;-2.10;99.90
40758;DHT22;26462;47.384;19.218;2024-01-15T02:31:36;-2.20;99.90
40758;DHT22;26462;47.384;19.218;2024-01-15T02:34:05;-2.10;99.90
40758;DHT22;26462;47.384;19.218;2024-01-15T02:36:33;-2.10;99.90
40758;DHT22;26462;47.384;19.218;2024-01-15T02:39:02;-2.20;99.90
40758;DHT22;26462;47.384;19.218;2024-01-15T02:41:32;-2.20;99.90
40758;DHT22;26462;47.384;19.218;2024-01-15T02:44:00;-2.20;99.90
40758;DHT22;26462;47.384;19.218;2024-01-15T02:46:28;-2.30;99.90
40758;DHT22;26462;47.384;19.218;2024-01-15T02:48:57;-2.30;99.90
40758;DHT22;26462;47.384;19.218;2024-01-15T02:51:25;-2.30;99.90
40758;DHT22;26462;47.384;19.218;2024-01-15T02:53:54;-2.30;99.90
40758;DHT22;26462;47.384;19.218;2024-01-15T02:56:22;-2.20;99.90
40758;DHT22;26462;47.384;19.218;2024-01-15T02:58:52;-2.30;99.90
40758;DHT22;26462;47.384;19.218;2024-01-15T03:01:20;-2.30;99.90
40758;DHT22;26462;47.384;19.218;2024-01-15T03:03:49;-2.30;99.90
40758;DHT22;26462;47.384;19.218;2024-01-15T03:06:18;-2.40;99.90
40758;DHT22;26462;47.384;19.218;2024-01-15T03:08:46;-2.50;99.90
40758;DHT22;26462;47.384;19.218;2024-01-15T03:11:14;-2.60;99.90
40758;DHT22;26462;47.384;19.218;2024-01-15T03:13:43;-2.50;99.90
40758;DHT22;26462;47.384;19.218;2024-01-15T03:16:13;-2.60;99.90
40758;DHT22;26462;47.384;19.218;2024-01-15T03:18:41;-2.50;99.90
40758;DHT22;26462;47.384;19.218;2024-01-15T03:21:10;-2.50;99.90
40758;DHT22;26462;47.384;19.218;2024-01-15T03:23:38;-2.50;99.90
40758;DHT22;26462;47.384;19.218;2024-01-15T03:26:06;-2.60;99.90
40758;DHT22;26462;47.384;19.218;2024-01-15T03:28:34;-2.60;99.90
40758;DHT22;26462;47.384;19.218;2024-01-15T03:31:03;-2.60;99.90
40758;DHT22;26462;47.384;19.218;2024-01-15T03:33:33;-2.60;99.90
40758;DHT22;26462;47.384;19.218;2024-01-15T03:36:01;-2.60;99.90
40758;DHT22;26462;47.384;19.218;2024-01-15T03:38:30;-2.60;99.90
40758;DHT22;26462;47.384;19.218;2024-01-15T03:40:58;-2.70;99.90
40758;DHT22;26462;47.384;19.218;2024-01-15T03:43:27;-2.80;99.90
40758;DHT22;26462;47.384;19.218;2024-01-15T03:45:55;-2.70;99.90
40758;DHT22;26462;47.384;19.218;2024-01-15T03:48:24;-2.70;99.90
40758;DHT22;26462;47.384;19.218;2024-01-15T03:50:54;-2.70;99.90
40758;DHT22;26462;47.384;19.218;2024-01-15T03:53:22;-2.70;99.90
40758;DHT22;26462;47.384;19.218;2024-01-15T03:55:51;-2.70;99.90
40758;DHT22;26462;47.384;19.218;2024-01-15T03:58:19;-2.70;99.90
40758;DHT22;26462;47.384;19.218;2024-01-15T04:00:48;-2.80;99.90
40758;DHT22;26462;47.384;19.218;2024-01-15T04:03:16;-2.90;99.90
40758;DHT22;26462;47.384;19.218;2024-01-15T04:05:45;-2.80;99.90
40758;DHT22;26462;47.384;19.218;2024-01-15T04:08:15;-2.90;99.90
40758;DHT22;26462;47.384;19.218;2024-01-15T04:10:43;-2.90;99.90
40758;DHT22;26462;47.384;19.218;2024-01-15T04:13:12;-2.90;99.90
40758;DHT22;26462;47.384;19.218;2024-01-15T04:15:40;-2.90;99.90
40758;DHT22;26462;47.384;19.218;2024-01-15T04:18:09;-2.90;99.90
40758;DHT22;26462;47.384;19.218;2024-01-15T04:20:37;-2.80;99.90
40758;DHT22;26462;47.384;19.218;2024-01-15T04:23:06;-2.90;99.90
40758;DHT22;26462;47.384;19.218;2024-01-15T04:25:36;-2.90;99.90
40758;DHT22;26462;47.384;19.218;2024-01-15T04:28:05;-2.90;99.90
40758;DHT22;26462;47.384;19.218;2024-01-15T04:30:33;-3.00;99.90
40758;DHT22;26462;47.384;19.218;2024-01-15T04:33:02;-3.00;99.90
40758;DHT22;26462;47.384;19.218;2024-01-15T04:35:30;-3.00;99.90
40758;DHT22;26462;47.384;19.218;2024-01-15T04:37:59;-3.10;99.90
40758;DHT22;26462;47.384;19.218;2024-01-15T04:40:27;-3.00;99.90
40758;DHT22;26462;47.384;19.218;2024-01-15T04:42:57;-3.00;99.90
40758;DHT22;26462;47.384;19.218;2024-01-15T04:45:25;-3.00;99.90
40758;DHT22;26462;47.384;19.218;2024-01-15T04:47:56;-3.00;99.90
40758;DHT22;26462;47.384;19.218;2024-01-15T04:50:25;-3.00;99.90
40758;DHT22;26462;47.384;19.218;2024-01-15T04:52:53;-3.00;99.90
40758;DHT22;26462;47.384;19.218;2024-01-15T04:55:21;-3.00;99.90
40758;DHT22;26462;47.384;19.218;2024-01-15T04:57:50;-3.10;99.90
40758;DHT22;26462;47.384;19.218;2024-01-15T05:00:20;-3.10;99.90
40758;DHT22;26462;47.384;19.218;2024-01-15T05:02:48;-3.10;99.90
40758;DHT22;26462;47.384;19.218;2024-01-15T05:05:17;-3.10;99.90
40758;DHT22;26462;47.384;19.218;2024-01-15T05:07:45;-3.10;99.90
40758;DHT22;26462;47.384;19.218;2024-01-15T05:10:14;-3.10;99.90
40758;DHT22;26462;47.384;19.218;2024-01-15T05:12:42;-3.20;99.90
40758;DHT22;26462;47.384;19.218;2024-01-15T05:15:11;-3.20;99.90
40758;DHT22;26462;47.384;19.218;2024-01-15T05:17:41;-3.20;99.90
40758;DHT22;26462;47.384;19.218;2024-01-15T05:20:10;-3.30;99.90
40758;DHT22;26462;47.384;19.218;2024-01-15T05:22:39;-3.20;99.90
40758;DHT22;26462;47.384;19.218;2024-01-15T05:25:07;-3.20;99.90
40758;DHT22;26462;47.384;19.218;2024-01-15T05:27:36;-3.20;99.90
40758;DHT22;26462;47.384;19.218;2024-01-15T05:30:05;-3.30;99.90
40758;DHT22;26462;47.384;19.218;2024-01-15T05:32:34;-3.30;99.90
40758;DHT22;26462;47.384;19.218;2024-01-15T05:35:04;-3.30;99.90
40758;DHT22;26462;47.384;19.218;2024-01-15T05:37:33;-3.30;99.90
40758;DHT22;26462;47.384;19.218;2024-01-15T05:40:01;-3.30;99.90
40758;DHT22;26462;47.384;19.218;2024-01-15T05:42:32;-3.30;99.90
40758;DHT22;26462;47.384;19.218;2024-01-15T05:45:00;-3.30;99.90
40758;DHT22;26462;47.384;19.218;2024-01-15T05:47:31;-2.70;99.90
40758;DHT22;26462;47.384;19.218;2024-01-15T05:50:01;-3.40;99.90
40758;DHT22;26462;47.384;19.218;2024-01-15T05:52:31;-3.30;99.90
40758;DHT22;26462;47.384;19.218;2024-01-15T05:54:59;-3.30;99.90
40758;DHT22;26462;47.384;19.218;2024-01-15T05:57:28;-3.40;99.90
40758;DHT22;26462;47.384;19.218;2024-01-15T05:59:57;-2.90;99.90
40758;DHT22;26462;47.384;19.218;2024-01-15T06:02:27;-2.90;99.90
40758;DHT22;26462;47.384;19.218;2024-01-15T06:04:56;-3.90;99.90
40758;DHT22;26462;47.384;19.218;2024-01-15T06:07:25;-2.20;99.90
40758;DHT22;26462;47.384;19.218;2024-01-15T06:09:55;-2.00;99.90
40758;DHT22;26462;47.384;19.218;2024-01-15T06:12:24;-3.40;99.90
40758;DHT22;26462;47.384;19.218;2024-01-15T06:14:55;-2.90;99.90
40758;DHT22;26462;47.384;19.218;2024-01-15T06:17:24;-3.70;99.90
40758;DHT22;26462;47.384;19.218;2024-01-15T06:19:53;-2.90;99.90
40758;DHT22;26462;47.384;19.218;2024-01-15T06:22:22;-1.60;99.90
40758;DHT22;26462;47.384;19.218;2024-01-15T06:24:51;-3.80;99.90
40758;DHT22;26462;47.384;19.218;2024-01-15T06:27:21;-3.40;99.90
40758;DHT22;26462;47.384;19.218;2024-01-15T06:29:50;-3.30;99.90
40758;DHT22;26462;47.384;19.218;2024-01-15T06:32:19;-4.40;99.90
40758;DHT22;26462;47.384;19.218;2024-01-15T06:34:48;-2.40;99.90
40758;DHT22;26462;47.384;19.218;2024-01-15T06:37:17;-2.90;99.90
40758;DHT22;26462;47.384;19.218;2024-01-15T06:39:47;-3.30;99.90
40758;DHT22;26462;47.384;19.218;2024-01-15T06:42:16;-2.40;99.90
40758;DHT22;26462;47.384;19.218;2024-01-15T06:44:47;-2.00;99.90
40758;DHT22;26462;47.384;19.218;2024-01-15T06:47:15;-2.10;99.90
40758;DHT22;26462;47.384;19.218;2024-01-15T06:49:44;-2.50;99.90
40758;DHT22;26462;47.384;19.218;2024-01-15T06:52:13;-3.00;99.90
40758;DHT22;26462;47.384;19.218;2024-01-15T06:54:43;-3.00;99.90
40758;DHT22;26462;47.384;19.218;2024-01-15T06:57:12;-3.20;99.90
40758;DHT22;26462;47.384;19.218;2024-01-15T06:59:41;-3.10;99.90
40758;DHT22;26462;47.384;19.218;2024-01-15T07:02:15;-2.90;99.90
40758;DHT22;26462;47.384;19.218;2024-01-15T07:04:44;-2.80;99.90
40758;DHT22;26462;47.384;19.218;2024-01-15T07:07:12;-3.00;99.90
40758;DHT22;26462;47.384;19.218;2024-01-15T07:09:41;-3.00;99.90
40758;DHT22;26462;47.384;19.218;2024-01-15T07:12:09;-3.00;99.90
40758;DHT22;26462;47.384;19.218;2024-01-15T07:14:37;-2.30;99.90
40758;DHT22;26462;47.384;19.218;2024-01-15T07:17:06;-2.80;99.90
40758;DHT22;26462;47.384;19.218;2024-01-15T07:19:36;-2.80;99.90
40758;DHT22;26462;47.384;19.218;2024-01-15T07:22:04;-2.70;99.90
40758;DHT22;26462;47.384;19.218;2024-01-15T07:24:33;-2.70;99.90
40758;DHT22;26462;47.384;19.218;2024-01-15T07:27:02;-2.60;99.90
40758;DHT22;26462;47.384;19.218;2024-01-15T07:29:32;-2.60;99.90
40758;DHT22;26462;47.384;19.218;2024-01-15T07:32:04;-2.50;99.90
40758;DHT22;26462;47.384;19.218;2024-01-15T07:34:36;-2.60;99.90
40758;DHT22;26462;47.384;19.218;2024-01-15T07:37:04;-2.50;99.90
40758;DHT22;26462;47.384;19.218;2024-01-15T07:39:33;-2.60;99.90
40758;DHT22;26462;47.384;19.218;2024-01-15T07:42:02;-2.60;99.90
40758;DHT22;26462;47.384;19.218;2024-01-15T07:44:30;-2.50;99.90
40758;DHT22;26462;47.384;19.218;2024-01-15T07:46:59;-2.50;99.90
40758;DHT22;26462;47.384;19.218;2024-01-15T07:49:27;-2.60;99.90
40758;DHT22;26462;47.384;19.218;2024-01-15T07:51:57;-2.50;99.90
40758;DHT22;26462;47.384;19.218;2024-01-15T07:54:26;-2.50;99.90
40758;DHT22;26462;47.384;19.218;2024-01-15T07:56:55;-2.50;99.90
40758;DHT22;26462;47.384;19.218;2024-01-15T07:59:24;-2.50;99.90
40758;DHT22;26462;47.384;19.218;2024-01-15T08:01:53;-2.50;99.90
40758;DHT22;26462;47.384;19.218;2024-01-15T08:04:21;-2.50;99.90
40758;DHT22;26462;47.384;19.218;2024-01-15T08:06:50;-2.40;99.90
40758;DHT22;26462;47.384;19.218;2024-01-15T08:09:20;-2.40;99.90
40758;DHT22;26462;47.384;19.218;2024-01-15T08:11:49;-2.30;99.90
40758;DHT22;26462;47.384;19.218;2024-01-15T08:14:17;-2.20;99.90
40758;DHT22;26462;47.384;19.218;2024-01-15T08:16:46;-1.60;99.90
40758;DHT22;26462;47.384;19.218;2024-01-15T08:19:15;-1.80;99.90
40758;DHT22;26462;47.384;19.218;2024-01-15T08:21:44;-1.40;99.90
40758;DHT22;26462;47.384;19.218;2024-01-15T08:24:15;-0.90;99.90
40758;DHT22;26462;47.384;19.218;2024-01-15T08:29:45;-1.10;99.90
40758;DHT22;26462;47.384;19.218;2024-01-15T08:32:14;0.00;99.90
40758;DHT22;26462;47.384;19.218;2024-01-15T08:34:44;0.10;99.90
40758;DHT22;26462;47.384;19.218;2024-01-15T08:37:16;-1.20;99.90
40758;DHT22;26462;47.384;19.218;2024-01-15T08:39:44;-0.50;99.90
40758;DHT22;26462;47.384;19.218;2024-01-15T08:42:17;-1.20;99.90
40758;DHT22;26462;47.384;19.218;2024-01-15T08:44:47;-1.00;99.90
40758;DHT22;26462;47.384;19.218;2024-01-15T08:47:15;-0.80;99.90
40758;DHT22;26462;47.384;19.218;2024-01-15T08:49:44;-0.70;99.90
40758;DHT22;26462;47.384;19.218;2024-01-15T08:52:13;-0.50;99.90
40758;DHT22;26462;47.384;19.218;2024-01-15T08:54:43;-0.40;99.90
40758;DHT22;26462;47.384;19.218;2024-01-15T08:57:12;-0.20;99.90
40758;DHT22;26462;47.384;19.218;2024-01-15T08:59:41;-0.20;99.90
40758;DHT22;26462;47.384;19.218;2024-01-15T09:02:11;-0.20;99.90
40758;DHT22;26462;47.384;19.218;2024-01-15T09:04:42;-0.20;99.90
40758;DHT22;26462;47.384;19.218;2024-01-15T09:07:11;0.00;99.90
40758;DHT22;26462;47.384;19.218;2024-01-15T09:09:39;0.00;99.90
40758;DHT22;26462;47.384;19.218;2024-01-15T09:12:09;0.10;99.90
40758;DHT22;26462;47.384;19.218;2024-01-15T09:14:38;0.20;99.90
40758;DHT22;26462;47.384;19.218;2024-01-15T09:17:07;0.40;99.90
40758;DHT22;26462;47.384;19.218;2024-01-15T09:19:38;0.40;99.90
40758;DHT22;26462;47.384;19.218;2024-01-15T09:22:07;0.50;99.90
40758;DHT22;26462;47.384;19.218;2024-01-15T09:24:40;1.10;99.90
40758;DHT22;26462;47.384;19.218;2024-01-15T09:27:09;0.60;99.90
40758;DHT22;26462;47.384;19.218;2024-01-15T09:29:37;0.60;99.90
40758;DHT22;26462;47.384;19.218;2024-01-15T09:32:09;0.70;99.90
40758;DHT22;26462;47.384;19.218;2024-01-15T09:34:39;0.70;99.90
40758;DHT22;26462;47.384;19.218;2024-01-15T09:37:09;0.80;99.90
40758;DHT22;26462;47.384;19.218;2024-01-15T09:39:50;1.10;99.90
40758;DHT22;26462;47.384;19.218;2024-01-15T09:42:19;0.90;99.90
40758;DHT22;26462;47.384;19.218;2024-01-15T09:44:49;2.10;99.90
40758;DHT22;26462;47.384;19.218;2024-01-15T09:47:18;1.00;99.90
40758;DHT22;26462;47.384;19.218;2024-01-15T09:49:49;1.10;99.90
40758;DHT22;26462;47.384;19.218;2024-01-15T09:52:19;1.10;99.90
40758;DHT22;26462;47.384;19.218;2024-01-15T09:54:49;1.20;99.90
40758;DHT22;26462;47.384;19.218;2024-01-15T09:57:18;3.10;99.90
40758;DHT22;26462;47.384;19.218;2024-01-15T09:59:47;1.50;99.90
40758;DHT22;26462;47.384;19.218;2024-01-15T10:02:18;1.50;99.90
40758;DHT22;26462;47.384;19.218;2024-01-15T10:04:51;1.70;99.90
40758;DHT22;26462;47.384;19.218;2024-01-15T10:07:21;2.00;99.90
40758;DHT22;26462;47.384;19.218;2024-01-15T10:09:50;1.80;99.90
40758;DHT22;26462;47.384;19.218;2024-01-15T10:12:18;2.00;99.90
40758;DHT22;26462;47.384;19.218;2024-01-15T10:14:50;2.00;99.90
40758;DHT22;26462;47.384;19.218;2024-01-15T10:17:19;2.10;99.90
40758;DHT22;26462;47.384;19.218;2024-01-15T10:19:49;2.10;99.90
40758;DHT22;26462;47.384;19.218;2024-01-15T10:22:19;2.10;99.90
40758;DHT22;26462;47.384;19.218;2024-01-15T10:24:48;2.30;99.90
40758;DHT22;26462;47.384;19.218;2024-01-15T10:27:17;2.40;99.90
40758;DHT22;26462;47.384;19.218;2024-01-15T10:29:46;2.30;99.90
40758;DHT22;26462;47.384;19.218;2024-01-15T10:32:15;2.60;99.90
40758;DHT22;26462;47.384;19.218;2024-01-15T10:34:44;2.10;99.90
40758;DHT22;26462;47.384;19.218;2024-01-15T10:37:15;2.60;99.90
40758;DHT22;26462;47.384;19.218;2024-01-15T10:39:46;2.70;99.90
40758;DHT22;26462;47.384;19.218;2024-01-15T10:42:15;2.90;99.90
40758;DHT22;26462;47.384;19.218;2024-01-15T10:44:45;3.00;99.90
40758;DHT22;26462;47.384;19.218;2024-01-15T10:47:15;2.90;99.30
40758;DHT22;26462;47.384;19.218;2024-01-15T10:49:44;3.00;99.20
40758;DHT22;26462;47.384;19.218;2024-01-15T10:52:15;3.10;98.50
40758;DHT22;26462;47.384;19.218;2024-01-15T10:54:47;3.20;98.90
40758;DHT22;26462;47.384;19.218;2024-01-15T10:57:17;3.20;97.00
40758;DHT22;26462;47.384;19.218;2024-01-15T10:59:47;3.20;96.50
40758;DHT22;26462;47.384;19.218;2024-01-15T11:02:16;1.70;96.80
40758;DHT22;26462;47.384;19.218;2024-01-15T11:04:45;2.30;95.70
40758;DHT22;26462;47.384;19.218;2024-01-15T11:07:16;2.80;95.40
40758;DHT22;26462;47.384;19.218;2024-01-15T11:09:45;3.60;95.30
40758;DHT22;26462;47.384;19.218;2024-01-15T11:12:16;3.60;94.70
40758;DHT22;26462;47.384;19.218;2024-01-15T11:14:47;3.60;95.10
40758;DHT22;26462;47.384;19.218;2024-01-15T11:17:17;3.30;94.50
40758;DHT22;26462;47.384;19.218;2024-01-15T11:19:48;3.70;94.30
40758;DHT22;26462;47.384;19.218;2024-01-15T11:22:51;3.70;94.40
40758;DHT22;26462;47.384;19.218;2024-01-15T11:25:22;3.90;93.30
40758;DHT22;26462;47.384;19.218;2024-01-15T11:27:55;4.00;93.00
40758;DHT22;26462;47.384;19.218;2024-01-15T11:30:25;4.30;93.40
40758;DHT22;26462;47.384;19.218;2024-01-15T11:32:55;4.20;92.70
40758;DHT22;26462;47.384;19.218;2024-01-15T11:35:48;4.50;93.00
40758;DHT22;26462;47.384;19.218;2024-01-15T11:38:28;4.20;92.60
40758;DHT22;26462;47.384;19.218;2024-01-15T11:40:58;4.30;92.30
40758;DHT22;26462;47.384;19.218;2024-01-15T11:43:32;4.40;92.70
40758;DHT22;26462;47.384;19.218;2024-01-15T11:46:02;4.30;92.50
40758;DHT22;26462;47.384;19.218;2024-01-15T11:48:42;4.10;92.30
40758;DHT22;26462;47.384;19.218;2024-01-15T11:51:12;4.30;91.90
40758;DHT22;26462;47.384;19.218;2024-01-15T11:53:45;3.30;91.70
40758;DHT22;26462;47.384;19.218;2024-01-15T11:56:16;4.40;91.70
40758;DHT22;26462;47.384;19.218;2024-01-15T11:58:45;4.40;91.80
40758;DHT22;26462;47.384;19.218;2024-01-15T12:01:14;4.30;91.60
40758;DHT22;26462;47.384;19.218;2024-01-15T12:03:46;4.40;91.30
40758;DHT22;26462;47.384;19.218;2024-01-15T12:06:15;4.50;91.10
40758;DHT22;26462;47.384;19.218;2024-01-15T12:08:46;5.10;91.40
40758;DHT22;26462;47.384;19.218;2024-01-15T12:11:17;4.50;91.50
40758;DHT22;26462;47.384;19.218;2024-01-15T12:13:47;4.40;91.40
40758;DHT22;26462;47.384;19.218;2024-01-15T12:16:16;4.60;91.20
40758;DHT22;26462;47.384;19.218;2024-01-15T12:18:45;4.70;91.30
40758;DHT22;26462;47.384;19.218;2024-01-15T12:21:14;4.40;91.50
40758;DHT22;26462;47.384;19.218;2024-01-15T12:23:45;4.40;91.50
40758;DHT22;26462;47.384;19.218;2024-01-15T12:26:17;4.40;91.50
40758;DHT22;26462;47.384;19.218;2024-01-15T12:28:46;4.50;91.40
40758;DHT22;26462;47.384;19.218;2024-01-15T12:31:15;3.50;91.50
40758;DHT22;26462;47.384;19.218;2024-01-15T12:33:44;4.50;91.00
40758;DHT22;26462;47.384;19.218;2024-01-15T12:36:13;5.00;91.40
40758;DHT22;26462;47.384;19.218;2024-01-15T12:38:42;4.40;91.60
40758;DHT22;26462;47.384;19.218;2024-01-15T12:41:12;3.30;91.50
40758;DHT22;26462;47.384;19.218;2024-01-15T12:43:42;3.80;91.70
40758;DHT22;26462;47.384;19.218;2024-01-15T12:46:11;4.20;91.90
40758;DHT22;26462;47.384;19.218;2024-01-15T12:48:42;4.10;91.90
40758;DHT22;26462;47.384;19.218;2024-01-15T12:51:11;4.10;92.10
40758;DHT22;26462;47.384;19.218;2024-01-15T12:53:40;4.20;92.20
40758;DHT22;26462;47.384;19.218;2024-01-15T12:56:08;4.10;91.80
40758;DHT22;26462;47.384;19.218;2024-01-15T12:58:37;4.10;92.10
40758;DHT22;26462;47.384;19.218;2024-01-15T13:01:08;4.10;92.30
40758;DHT22;26462;47.384;19.218;2024-01-15T13:03:39;4.10;91.80
40758;DHT22;26462;47.384;19.218;2024-01-15T13:06:08;4.20;91.70
40758;DHT22;26462;47.384;19.218;2024-01-15T13:08:38;4.20;91.40
40758;DHT22;26462;47.384;19.218;2024-01-15T13:11:07;4.20;91.50
40758;DHT22;26462;47.384;19.218;2024-01-15T13:13:37;4.20;90.90
40758;DHT22;26462;47.384;19.218;2024-01-15T13:16:07;4.30;91.00
40758;DHT22;26462;47.384;19.218;2024-01-15T13:18:36;4.20;90.90
40758;DHT22;26462;47.384;19.218;2024-01-15T13:21:07;4.20;90.60
40758;DHT22;26462;47.384;19.218;2024-01-15T13:23:36;4.30;90.30
40758;DHT22;26462;47.384;19.218;2024-01-15T13:26:07;4.30;90.30
40758;DHT22;26462;47.384;19.218;2024-01-15T13:28:40;4.20;90.30
40758;DHT22;26462;47.384;19.218;2024-01-15T13:31:12;4.20;90.20
40758;DHT22;26462;47.384;19.218;2024-01-15T13:33:44;4.20;89.70
40758;DHT22;26462;47.384;19.218;2024-01-15T13:36:15;4.20;90.10
40758;DHT22;26462;47.384;19.218;2024-01-15T13:38:43;4.10;90.30
40758;DHT22;26462;47.384;19.218;2024-01-15T13:41:12;4.10;90.30
40758;DHT22;26462;47.384;19.218;2024-01-15T13:43:41;4.10;90.20
40758;DHT22;26462;47.384;19.218;2024-01-15T13:46:09;4.10;90.00
40758;DHT22;26462;47.384;19.218;2024-01-15T13:48:39;4.10;90.40
40758;DHT22;26462;47.384;19.218;2024-01-15T13:51:09;4.10;90.30
40758;DHT22;26462;47.384;19.218;2024-01-15T13:53:38;4.00;90.30
40758;DHT22;26462;47.384;19.218;2024-01-15T13:56:07;4.00;90.40
40758;DHT22;26462;47.384;19.218;2024-01-15T13:58:37;4.00;90.80
40758;DHT22;26462;47.384;19.218;2024-01-15T14:01:06;4.00;90.50
40758;DHT22;26462;47.384;19.218;2024-01-15T14:03:35;3.80;90.70
40758;DHT22;26462;47.384;19.218;2024-01-15T14:06:05;3.80;91.10
40758;DHT22;26462;47.384;19.218;2024-01-15T14:08:36;3.60;91.20
40758;DHT22;26462;47.384;19.218;2024-01-15T14:11:04;3.50;91.50
40758;DHT22;26462;47.384;19.218;2024-01-15T14:13:36;3.50;92.00
40758;DHT22;26462;47.384;19.218;2024-01-15T14:16:09;3.50;91.80
40758;DHT22;26462;47.384;19.218;2024-01-15T14:18:39;3.40;91.80
40758;DHT22;26462;47.384;19.218;2024-01-15T14:21:09;3.30;92.00
40758;DHT22;26462;47.384;19.218;2024-01-15T14:23:37;3.30;92.10
40758;DHT22;26462;47.384;19.218;2024-01-15T14:26:06;3.30;92.20
40758;DHT22;26462;47.384;19.218;2024-01-15T14:28:34;3.30;92.40
40758;DHT22;26462;47.384;19.218;2024-01-15T14:31:03;3.50;92.10
40758;DHT22;26462;47.384;19.218;2024-01-15T14:33:33;3.40;92.20
40758;DHT22;26462;47.384;19.218;2024-01-15T14:36:06;3.40;92.30
40758;DHT22;26462;47.384;19.218;2024-01-15T14:38:36;3.30;92.40
40758;DHT22;26462;47.384;19.218;2024-01-15T14:41:04;3.30;92.70
40758;DHT22;26462;47.384;19.218;2024-01-15T14:43:34;3.40;92.60
40758;DHT22;26462;47.384;19.218;2024-01-15T14:46:03;3.40;92.30
40758;DHT22;26462;47.384;19.218;2024-01-15T14:48:32;3.30;92.40
40758;DHT22;26462;47.384;19.218;2024-01-15T14:51:01;3.40;92.10
40758;DHT22;26462;47.384;19.218;2024-01-15T14:53:30;3.40;92.10
40758;DHT22;26462;47.384;19.218;2024-01-15T14:56:00;3.40;92.20
40758;DHT22;26462;47.384;19.218;2024-01-15T14:58:29;3.30;92.30
40758;DHT22;26462;47.384;19.218;2024-01-15T15:00:58;3.20;92.70
40758;DHT22;26462;47.384;19.218;2024-01-15T15:03:27;3.20;92.60
40758;DHT22;26462;47.384;19.218;2024-01-15T15:05:56;3.20;92.60
40758;DHT22;26462;47.384;19.218;2024-01-15T15:08:25;3.20;92.60
40758;DHT22;26462;47.384;19.218;2024-01-15T15:10:53;3.20;92.90
40758;DHT22;26462;47.384;19.218;2024-01-15T15:13:25;3.00;93.20
40758;DHT22;26462;47.384;19.218;2024-01-15T15:16:10;3.00;93.30
40758;DHT22;26462;47.384;19.218;2024-01-15T15:18:41;3.00;93.30
40758;DHT22;26462;47.384;19.218;2024-01-15T15:21:11;2.80;93.50
40758;DHT22;26462;47.384;19.218;2024-01-15T15:23:39;2.70;93.90
40758;DHT22;26462;47.384;19.218;2024-01-15T15:26:08;2.70;94.50
40758;DHT22;26462;47.384;19.218;2024-01-15T15:28:38;2.90;93.70
40758;DHT22;26462;47.384;19.218;2024-01-15T15:31:07;2.90;93.60
40758;DHT22;26462;47.384;19.218;2024-01-15T15:33:36;3.20;92.40
40758;DHT22;26462;47.384;19.218;2024-01-15T15:36:05;3.20;92.40
40758;DHT22;26462;47.384;19.218;2024-01-15T15:38:34;3.10;92.40
40758;DHT22;26462;47.384;19.218;2024-01-15T15:41:02;3.30;91.70